sensor_id;sensor_type;location;lat;lon;timestamp;pressure;altitude;pressure_sealevel;temperature;humidity
85507;BME280;75915;41.988;21.460;2024-03-08T00:02:23;98767.56;;;8.12;62.55
85507;BME280;75915;41.988;21.460;2024-03-08T00:04:49;98772.34;;;8.10;62.61
85507;BME280;75915;41.988;21.460;2024-03-08T00:07:14;98770.69;;;8.26;62.43
85507;BME280;75915;41.988;21.460;2024-03-08T00:09:40;98772.84;;;8.07;62.67
85507;BME280;75915;41.988;21.460;2024-03-08T00:12:06;98759.97;;;8.04;62.56
85507;BME280;75915;41.988;21.460;2024-03-08T00:14:31;98764.16;;;8.17;62.68
85507;BME280;75915;41.988;21.460;2024-03-08T00:16:58;98763.84;;;8.13;62.74
85507;BME280;75915;41.988;21.460;2024-03-08T00:19:24;98763.84;;;8.13;63.01
85507;BME280;75915;41.988;21.460;2024-03-08T00:21:49;98754.78;;;8.15;62.89
85507;BME280;75915;41.988;21.460;2024-03-08T00:24:14;98766.09;;;8.22;62.79
85507;BME280;75915;41.988;21.460;2024-03-08T00:26:40;98765.53;;;8.20;63.11
85507;BME280;75915;41.988;21.460;2024-03-08T00:29:08;98766.09;;;8.22;63.29
85507;BME280;75915;41.988;21.460;2024-03-08T00:31:35;98768.19;;;8.20;63.15
85507;BME280;75915;41.988;21.460;2024-03-08T00:34:01;98761.19;;;7.97;63.76
85507;BME280;75915;41.988;21.460;2024-03-08T00:36:26;98762.16;;;8.07;63.87
85507;BME280;75915;41.988;21.460;2024-03-08T00:38:52;98764.56;;;8.09;63.34
85507;BME280;75915;41.988;21.460;2024-03-08T00:41:18;98761.59;;;8.05;63.46
85507;BME280;75915;41.988;21.460;2024-03-08T00:43:43;98754.97;;;8.08;63.48
85507;BME280;75915;41.988;21.460;2024-03-08T00:46:09;98764.50;;;8.04;63.18
85507;BME280;75915;41.988;21.460;2024-03-08T00:48:34;98759.50;;;8.07;63.25
85507;BME280;75915;41.988;21.460;2024-03-08T00:51:04;98755.47;;;8.05;63.21
85507;BME280;75915;41.988;21.460;2024-03-08T00:53:29;98763.88;;;7.80;63.00
85507;BME280;75915;41.988;21.460;2024-03-08T00:55:55;98760.56;;;7.73;63.44
85507;BME280;75915;41.988;21.460;2024-03-08T00:58:22;98763.72;;;7.69;63.72
85507;BME280;75915;41.988;21.460;2024-03-08T01:00:49;98760.09;;;7.76;63.40
85507;BME280;75915;41.988;21.460;2024-03-08T01:03:15;98765.50;;;7.81;63.44
85507;BME280;75915;41.988;21.460;2024-03-08T01:05:42;98764.31;;;7.72;63.75
85507;BME280;75915;41.988;21.460;2024-03-08T01:08:07;98761.47;;;7.61;64.26
85507;BME280;75915;41.988;21.460;2024-03-08T01:10:34;98767.47;;;7.68;64.02
85507;BME280;75915;41.988;21.460;2024-03-08T01:13:02;98759.19;;;7.70;63.78
85507;BME280;75915;41.988;21.460;2024-03-08T01:15:27;98758.63;;;7.68;63.44
85507;BME280;75915;41.988;21.460;2024-03-08T01:17:53;98757.25;;;7.65;63.96
85507;BME280;75915;41.988;21.460;2024-03-08T01:20:19;98756.78;;;7.68;63.57
85507;BME280;75915;41.988;21.460;2024-03-08T01:22:46;98752.56;;;7.73;63.58
85507;BME280;75915;41.988;21.460;2024-03-08T01:25:11;98757.97;;;7.78;63.72
85507;BME280;75915;41.988;21.460;2024-03-08T01:27:37;98752.75;;;7.83;63.32
85507;BME280;75915;41.988;21.460;2024-03-08T01:30:04;98750.94;;;7.88;63.25
85507;BME280;75915;41.988;21.460;2024-03-08T01:32:30;98756.34;;;7.94;62.91
85507;BME280;75915;41.988;21.460;2024-03-08T01:34:55;98765.72;;;7.96;62.45
85507;BME280;75915;41.988;21.460;2024-03-08T01:37:21;98763.13;;;8.01;61.35
85507;BME280;75915;41.988;21.460;2024-03-08T01:39:46;98762.63;;;8.04;61.52
85507;BME280;75915;41.988;21.460;2024-03-08T01:42:13;98759.97;;;8.04;61.02
85507;BME280;75915;41.988;21.460;2024-03-08T01:44:40;98766.44;;;8.08;61.18
85507;BME280;75915;41.988;21.460;2024-03-08T01:47:06;98770.41;;;8.06;61.00
85507;BME280;75915;41.988;21.460;2024-03-08T01:49:32;98764.50;;;8.04;60.63
85507;BME280;75915;41.988;21.460;2024-03-08T01:51:58;98764.84;;;8.07;60.56
85507;BME280;75915;41.988;21.460;2024-03-08T01:54:24;98755.19;;;8.06;60.57
85507;BME280;75915;41.988;21.460;2024-03-08T01:56:51;98760.31;;;8.08;60.50
85507;BME280;75915;41.988;21.460;2024-03-08T01:59:19;98759.50;;;8.07;60.49
85507;BME280;75915;41.988;21.460;2024-03-08T02:01:44;98751.72;;;8.06;60.44
85507;BME280;75915;41.988;21.460;2024-03-08T02:04:10;98756.50;;;8.04;60.62
85507;BME280;75915;41.988;21.460;2024-03-08T02:06:37;98756.81;;;8.07;60.78
85507;BME280;75915;41.988;21.460;2024-03-08T02:09:04;98758.44;;;8.08;60.29
85507;BME280;75915;41.988;21.460;2024-03-08T02:11:34;98764.34;;;8.10;59.85
85507;BME280;75915;41.988;21.460;2024-03-08T02:14:01;98766.19;;;8.10;60.04
85507;BME280;75915;41.988;21.460;2024-03-08T02:16:27;98763.59;;;8.15;59.71
85507;BME280;75915;41.988;21.460;2024-03-08T02:18:56;98769.25;;;8.19;59.46
85507;BME280;75915;41.988;21.460;2024-03-08T02:21:21;98760.19;;;8.20;59.70
85507;BME280;75915;41.988;21.460;2024-03-08T02:23:47;98773.28;;;8.21;59.22
85507;BME280;75915;41.988;21.460;2024-03-08T02:26:12;98772.25;;;8.22;59.47
85507;BME280;75915;41.988;21.460;2024-03-08T02:28:38;98768.50;;;8.23;59.30
85507;BME280;75915;41.988;21.460;2024-03-08T02:31:04;98767.69;;;8.23;59.23
85507;BME280;75915;41.988;21.460;2024-03-08T02:33:33;98774.91;;;8.22;58.97
85507;BME280;75915;41.988;21.460;2024-03-08T02:35:59;98776.78;;;8.22;59.25
85507;BME280;75915;41.988;21.460;2024-03-08T02:38:26;98777.56;;;8.22;58.89
85507;BME280;75915;41.988;21.460;2024-03-08T02:40:53;98768.78;;;8.22;58.69
85507;BME280;75915;41.988;21.460;2024-03-08T02:43:19;98767.47;;;8.24;58.85
85507;BME280;75915;41.988;21.460;2024-03-08T02:45:46;98773.59;;;8.25;58.40
85507;BME280;75915;41.988;21.460;2024-03-08T02:48:12;98772.53;;;8.26;58.89
85507;BME280;75915;41.988;21.460;2024-03-08T02:50:38;98774.19;;;8.27;58.81
85507;BME280;75915;41.988;21.460;2024-03-08T02:53:14;98778.72;;;8.26;58.64
85507;BME280;75915;41.988;21.460;2024-03-08T02:55:40;98773.09;;;8.28;58.41
85507;BME280;75915;41.988;21.460;2024-03-08T02:58:07;98776.28;;;8.25;58.78
85507;BME280;75915;41.988;21.460;2024-03-08T03:00:36;98777.56;;;8.22;58.90
85507;BME280;75915;41.988;21.460;2024-03-08T03:03:02;98782.13;;;8.22;58.83
85507;BME280;75915;41.988;21.460;2024-03-08T03:05:28;98776.03;;;8.26;58.48
85507;BME280;75915;41.988;21.460;2024-03-08T03:07:55;98781.44;;;8.31;58.29
85507;BME280;75915;41.988;21.460;2024-03-08T03:10:21;98785.16;;;8.30;58.69
85507;BME280;75915;41.988;21.460;2024-03-08T03:12:47;98787.03;;;8.30;58.33
85507;BME280;75915;41.988;21.460;2024-03-08T03:15:14;98784.06;;;8.26;58.64
85507;BME280;75915;41.988;21.460;2024-03-08T03:17:48;98783.72;;;8.23;58.76
85507;BME280;75915;41.988;21.460;2024-03-08T03:20:16;98789.06;;;8.23;58.69
85507;BME280;75915;41.988;21.460;2024-03-08T03:22:48;98795.47;;;8.22;58.58
85507;BME280;75915;41.988;21.460;2024-03-08T03:25:18;98796.25;;;8.22;58.69
85507;BME280;75915;41.988;21.460;2024-03-08T03:27:53;98794.09;;;8.19;58.97
85507;BME280;75915;41.988;21.460;2024-03-08T03:30:23;98794.25;;;8.12;59.32
85507;BME280;75915;41.988;21.460;2024-03-08T03:32:52;98795.22;;;8.06;59.11
85507;BME280;75915;41.988;21.460;2024-03-08T03:35:18;98789.88;;;8.06;59.01
85507;BME280;75915;41.988;21.460;2024-03-08T03:37:47;98800.50;;;8.01;59.29
85507;BME280;75915;41.988;21.460;2024-03-08T03:40:33;98791.34;;;7.97;59.59
85507;BME280;75915;41.988;21.460;2024-03-08T03:42:59;98792.09;;;7.93;59.26
85507;BME280;75915;41.988;21.460;2024-03-08T03:45:25;98790.41;;;7.86;59.70
85507;BME280;75915;41.988;21.460;2024-03-08T03:47:50;98802.22;;;7.90;59.83
85507;BME280;75915;41.988;21.460;2024-03-08T03:50:19;98794.28;;;7.79;59.90
85507;BME280;75915;41.988;21.460;2024-03-08T03:52:48;98793.06;;;7.69;59.86
85507;BME280;75915;41.988;21.460;2024-03-08T03:55:14;98793.06;;;7.69;59.94
85507;BME280;75915;41.988;21.460;2024-03-08T03:57:40;98793.13;;;7.58;60.31
85507;BME280;75915;41.988;21.460;2024-03-08T04:00:06;98794.28;;;7.45;61.08
85507;BME280;75915;41.988;21.460;2024-03-08T04:02:39;98799.97;;;7.37;61.34
85507;BME280;75915;41.988;21.460;2024-03-08T04:05:06;98806.13;;;7.37;61.35
85507;BME280;75915;41.988;21.460;2024-03-08T04:07:32;98805.88;;;7.10;61.94
85507;BME280;75915;41.988;21.460;2024-03-08T04:09:58;98810.41;;;6.81;63.36
85507;BME280;75915;41.988;21.460;2024-03-08T04:12:23;98808.63;;;6.58;64.15
85507;BME280;75915;41.988;21.460;2024-03-08T04:14:49;98814.44;;;6.43;64.54
85507;BME280;75915;41.988;21.460;2024-03-08T04:17:15;98813.84;;;6.41;64.78
85507;BME280;75915;41.988;21.460;2024-03-08T04:19:40;98820.28;;;6.57;64.19
85507;BME280;75915;41.988;21.460;2024-03-08T04:22:06;98819.59;;;6.61;64.15
85507;BME280;75915;41.988;21.460;2024-03-08T04:24:33;98817.63;;;6.69;63.59
85507;BME280;75915;41.988;21.460;2024-03-08T04:27:00;98819.09;;;6.76;63.54
85507;BME280;75915;41.988;21.460;2024-03-08T04:29:26;98821.44;;;6.73;63.42
85507;BME280;75915;41.988;21.460;2024-03-08T04:31:52;98821.34;;;6.56;63.97
85507;BME280;75915;41.988;21.460;2024-03-08T04:34:20;98830.72;;;6.47;64.78
85507;BME280;75915;41.988;21.460;2024-03-08T04:36:48;98836.31;;;6.33;65.45
85507;BME280;75915;41.988;21.460;2024-03-08T04:39:13;98832.81;;;6.33;65.58
85507;BME280;75915;41.988;21.460;2024-03-08T04:41:39;98839.66;;;6.40;65.31
85507;BME280;75915;41.988;21.460;2024-03-08T04:44:05;98834.44;;;6.46;65.35
85507;BME280;75915;41.988;21.460;2024-03-08T04:46:31;98835.47;;;6.56;64.93
85507;BME280;75915;41.988;21.460;2024-03-08T04:48:56;98837.66;;;6.59;64.70
85507;BME280;75915;41.988;21.460;2024-03-08T04:51:24;98838.47;;;6.60;64.78
85507;BME280;75915;41.988;21.460;2024-03-08T04:53:50;98844.94;;;6.64;64.59
85507;BME280;75915;41.988;21.460;2024-03-08T04:56:16;98857.94;;;6.60;64.89
85507;BME280;75915;41.988;21.460;2024-03-08T04:58:45;98858.41;;;6.57;65.30
85507;BME280;75915;41.988;21.460;2024-03-08T05:01:14;98854.34;;;6.55;65.28
85507;BME280;75915;41.988;21.460;2024-03-08T05:03:39;98863.84;;;6.51;65.99
85507;BME280;75915;41.988;21.460;2024-03-08T05:06:12;98863.16;;;6.44;66.27
85507;BME280;75915;41.988;21.460;2024-03-08T05:08:37;98869.63;;;6.48;66.09
85507;BME280;75915;41.988;21.460;2024-03-08T05:11:04;98867.88;;;6.53;65.98
85507;BME280;75915;41.988;21.460;2024-03-08T05:13:32;98874.13;;;6.59;65.89
85507;BME280;75915;41.988;21.460;2024-03-08T05:15:57;98882.69;;;6.73;65.67
85507;BME280;75915;41.988;21.460;2024-03-08T05:18:24;98883.66;;;6.95;64.68
85507;BME280;75915;41.988;21.460;2024-03-08T05:20:50;98878.91;;;6.97;64.67
85507;BME280;75915;41.988;21.460;2024-03-08T05:23:16;98880.50;;;7.10;64.32
85507;BME280;75915;41.988;21.460;2024-03-08T05:25:45;98886.84;;;7.21;64.00
85507;BME280;75915;41.988;21.460;2024-03-08T05:28:12;98888.81;;;7.25;63.91
85507;BME280;75915;41.988;21.460;2024-03-08T05:30:38;98890.66;;;7.25;63.88
85507;BME280;75915;41.988;21.460;2024-03-08T05:33:04;98897.13;;;7.29;63.81
85507;BME280;75915;41.988;21.460;2024-03-08T05:35:30;98906.09;;;7.23;63.72
85507;BME280;75915;41.988;21.460;2024-03-08T05:37:55;98906.09;;;7.23;64.06
85507;BME280;75915;41.988;21.460;2024-03-08T05:40:21;98902.16;;;7.14;64.24
85507;BME280;75915;41.988;21.460;2024-03-08T05:42:47;98910.94;;;7.26;64.14
85507;BME280;75915;41.988;21.460;2024-03-08T05:45:12;98916.19;;;7.50;63.47
85507;BME280;75915;41.988;21.460;2024-03-08T05:47:41;98919.69;;;7.96;62.77
85507;BME280;75915;41.988;21.460;2024-03-08T05:50:08;98924.88;;;8.70;60.78
85507;BME280;75915;41.988;21.460;2024-03-08T05:52:36;98918.13;;;9.28;58.27
85507;BME280;75915;41.988;21.460;2024-03-08T05:55:04;98921.31;;;9.74;57.96
85507;BME280;75915;41.988;21.460;2024-03-08T05:57:33;98919.16;;;9.71;56.76
85507;BME280;75915;41.988;21.460;2024-03-08T05:59:58;98916.94;;;9.68;56.97
85507;BME280;75915;41.988;21.460;2024-03-08T06:02:24;98917.56;;;10.35;55.68
85507;BME280;75915;41.988;21.460;2024-03-08T06:04:49;98918.81;;;11.07;54.14
85507;BME280;75915;41.988;21.460;2024-03-08T06:07:16;98914.53;;;12.05;52.46
85507;BME280;75915;41.988;21.460;2024-03-08T06:09:42;98913.16;;;12.69;50.86
85507;BME280;75915;41.988;21.460;2024-03-08T06:12:11;98912.38;;;13.49;48.23
85507;BME280;75915;41.988;21.460;2024-03-08T06:14:36;98918.97;;;14.11;46.85
85507;BME280;75915;41.988;21.460;2024-03-08T06:17:03;98910.22;;;14.59;45.19
85507;BME280;75915;41.988;21.460;2024-03-08T06:19:32;98913.09;;;14.67;44.45
85507;BME280;75915;41.988;21.460;2024-03-08T06:21:58;98916.28;;;14.40;45.48
85507;BME280;75915;41.988;21.460;2024-03-08T06:24:23;98915.19;;;15.00;44.17
85507;BME280;75915;41.988;21.460;2024-03-08T06:26:48;98915.66;;;14.48;44.29
85507;BME280;75915;41.988;21.460;2024-03-08T06:29:14;98925.63;;;15.06;44.66
85507;BME280;75915;41.988;21.460;2024-03-08T06:31:40;98915.81;;;15.77;42.46
85507;BME280;75915;41.988;21.460;2024-03-08T06:34:07;98919.56;;;15.82;42.13
85507;BME280;75915;41.988;21.460;2024-03-08T06:36:33;98917.53;;;15.30;41.64
85507;BME280;75915;41.988;21.460;2024-03-08T06:38:59;98920.66;;;15.81;41.60
85507;BME280;75915;41.988;21.460;2024-03-08T06:41:25;98918.09;;;15.70;41.73
85507;BME280;75915;41.988;21.460;2024-03-08T06:43:51;98922.59;;;16.13;40.59
85507;BME280;75915;41.988;21.460;2024-03-08T06:46:17;98919.22;;;16.21;41.10
85507;BME280;75915;41.988;21.460;2024-03-08T06:48:43;98923.28;;;15.86;40.71
85507;BME280;75915;41.988;21.460;2024-03-08T06:51:08;98919.34;;;15.78;41.60
85507;BME280;75915;41.988;21.460;2024-03-08T06:53:36;98915.72;;;15.45;41.32
85507;BME280;75915;41.988;21.460;2024-03-08T06:56:02;98931.94;;;14.38;42.57
85507;BME280;75915;41.988;21.460;2024-03-08T06:58:27;98938.59;;;13.07;45.93
85507;BME280;75915;41.988;21.460;2024-03-08T07:00:53;98943.00;;;12.67;46.67
85507;BME280;75915;41.988;21.460;2024-03-08T07:03:19;98942.19;;;12.67;47.33
85507;BME280;75915;41.988;21.460;2024-03-08T07:05:44;98942.19;;;13.57;45.31
85507;BME280;75915;41.988;21.460;2024-03-08T07:08:10;98934.72;;;13.88;44.80
85507;BME280;75915;41.988;21.460;2024-03-08T07:10:39;98945.22;;;13.90;44.21
85507;BME280;75915;41.988;21.460;2024-03-08T07:13:07;98943.97;;;13.77;44.24
85507;BME280;75915;41.988;21.460;2024-03-08T07:15:35;98942.41;;;12.80;46.56
85507;BME280;75915;41.988;21.460;2024-03-08T07:18:02;98935.94;;;12.92;46.52
85507;BME280;75915;41.988;21.460;2024-03-08T07:20:28;98947.84;;;12.29;47.95
85507;BME280;75915;41.988;21.460;2024-03-08T07:22:55;98950.53;;;12.04;49.09
85507;BME280;75915;41.988;21.460;2024-03-08T07:25:20;98951.31;;;12.09;49.49
85507;BME280;75915;41.988;21.460;2024-03-08T07:27:50;98947.28;;;12.58;47.77
85507;BME280;75915;41.988;21.460;2024-03-08T07:30:36;98953.47;;;12.07;49.10
85507;BME280;75915;41.988;21.460;2024-03-08T07:33:24;98949.72;;;12.08;49.69
85507;BME280;75915;41.988;21.460;2024-03-08T07:35:52;98946.16;;;13.05;47.22
85507;BME280;75915;41.988;21.460;2024-03-08T07:38:17;98954.59;;;13.53;46.02
85507;BME280;75915;41.988;21.460;2024-03-08T07:40:46;98952.88;;;13.73;45.52
85507;BME280;75915;41.988;21.460;2024-03-08T07:43:14;98954.25;;;13.65;45.63
85507;BME280;75915;41.988;21.460;2024-03-08T07:45:41;98947.44;;;13.28;46.22
85507;BME280;75915;41.988;21.460;2024-03-08T07:48:09;98947.75;;;13.01;46.79
85507;BME280;75915;41.988;21.460;2024-03-08T07:50:40;98949.66;;;12.95;46.80
85507;BME280;75915;41.988;21.460;2024-03-08T07:53:07;98951.72;;;13.24;46.46
85507;BME280;75915;41.988;21.460;2024-03-08T07:55:34;98950.50;;;12.86;46.88
85507;BME280;75915;41.988;21.460;2024-03-08T07:58:00;98952.13;;;12.76;47.21
85507;BME280;75915;41.988;21.460;2024-03-08T08:00:26;98951.59;;;12.69;47.98
85507;BME280;75915;41.988;21.460;2024-03-08T08:02:53;98942.41;;;12.91;47.19
85507;BME280;75915;41.988;21.460;2024-03-08T08:05:19;98941.94;;;12.53;47.74
85507;BME280;75915;41.988;21.460;2024-03-08T08:07:45;98939.66;;;13.06;47.35
85507;BME280;75915;41.988;21.460;2024-03-08T08:10:14;98935.72;;;12.68;47.58
85507;BME280;75915;41.988;21.460;2024-03-08T08:12:50;98927.94;;;12.66;47.50
85507;BME280;75915;41.988;21.460;2024-03-08T08:15:15;98924.63;;;12.95;46.56
85507;BME280;75915;41.988;21.460;2024-03-08T08:17:42;98926.34;;;13.51;46.42
85507;BME280;75915;41.988;21.460;2024-03-08T08:20:12;98926.75;;;14.13;45.22
85507;BME280;75915;41.988;21.460;2024-03-08T08:22:42;98932.03;;;13.44;45.23
85507;BME280;75915;41.988;21.460;2024-03-08T08:25:10;98933.69;;;13.35;46.14
85507;BME280;75915;41.988;21.460;2024-03-08T08:27:38;98930.47;;;13.33;45.81
85507;BME280;75915;41.988;21.460;2024-03-08T08:30:10;98926.06;;;13.97;45.55
85507;BME280;75915;41.988;21.460;2024-03-08T08:32:37;98928.72;;;13.57;45.47
85507;BME280;75915;41.988;21.460;2024-03-08T08:35:05;98917.91;;;12.97;47.13
85507;BME280;75915;41.988;21.460;2024-03-08T08:37:35;98920.59;;;12.97;47.09
85507;BME280;75915;41.988;21.460;2024-03-08T08:40:04;98918.22;;;12.75;47.66
85507;BME280;75915;41.988;21.460;2024-03-08T08:42:36;98915.06;;;12.53;47.85
85507;BME280;75915;41.988;21.460;2024-03-08T08:45:06;98910.25;;;12.14;48.90
85507;BME280;75915;41.988;21.460;2024-03-08T08:47:34;98907.00;;;12.37;48.80
85507;BME280;75915;41.988;21.460;2024-03-08T08:50:01;98910.97;;;12.86;48.35
85507;BME280;75915;41.988;21.460;2024-03-08T08:52:28;98904.09;;;13.30;47.60
85507;BME280;75915;41.988;21.460;2024-03-08T08:54:54;98915.41;;;13.76;46.34
85507;BME280;75915;41.988;21.460;2024-03-08T08:57:23;98915.44;;;14.11;44.23
85507;BME280;75915;41.988;21.460;2024-03-08T08:59:49;98908.78;;;12.93;46.93
85507;BME280;75915;41.988;21.460;2024-03-08T09:02:15;98906.91;;;12.89;47.04
85507;BME280;75915;41.988;21.460;2024-03-08T09:04:42;98908.06;;;12.36;48.06
85507;BME280;75915;41.988;21.460;2024-03-08T09:07:09;98905.66;;;12.40;48.42
85507;BME280;75915;41.988;21.460;2024-03-08T09:09:35;98906.84;;;13.04;46.86
85507;BME280;75915;41.988;21.460;2024-03-08T09:12:02;98906.56;;;13.11;46.94
85507;BME280;75915;41.988;21.460;2024-03-08T09:14:29;98904.69;;;13.06;47.10
85507;BME280;75915;41.988;21.460;2024-03-08T09:16:58;98901.88;;;12.67;47.57
85507;BME280;75915;41.988;21.460;2024-03-08T09:19:23;98899.09;;;12.92;47.67
85507;BME280;75915;41.988;21.460;2024-03-08T09:21:51;98895.75;;;13.36;46.66
85507;BME280;75915;41.988;21.460;2024-03-08T09:24:18;98894.91;;;13.36;46.19
85507;BME280;75915;41.988;21.460;2024-03-08T09:26:44;98899.28;;;13.16;46.96
85507;BME280;75915;41.988;21.460;2024-03-08T09:29:09;98896.47;;;13.47;45.92
85507;BME280;75915;41.988;21.460;2024-03-08T09:31:36;98901.25;;;12.95;46.48
85507;BME280;75915;41.988;21.460;2024-03-08T09:34:03;98901.59;;;12.73;47.01
85507;BME280;75915;41.988;21.460;2024-03-08T09:36:29;98894.06;;;12.60;47.50
85507;BME280;75915;41.988;21.460;2024-03-08T09:38:55;98892.13;;;12.86;46.94
85507;BME280;75915;41.988;21.460;2024-03-08T09:41:21;98897.53;;;12.81;47.36
85507;BME280;75915;41.988;21.460;2024-03-08T09:43:47;98898.28;;;12.97;47.51
85507;BME280;75915;41.988;21.460;2024-03-08T09:46:14;98896.66;;;13.01;46.21
85507;BME280;75915;41.988;21.460;2024-03-08T09:48:40;98894.78;;;12.96;46.41
85507;BME280;75915;41.988;21.460;2024-03-08T09:51:07;98888.72;;;13.35;46.63
85507;BME280;75915;41.988;21.460;2024-03-08T09:53:33;98893.59;;;13.28;45.55
85507;BME280;75915;41.988;21.460;2024-03-08T09:55:58;98884.91;;;12.76;46.61
85507;BME280;75915;41.988;21.460;2024-03-08T09:58:24;98888.41;;;12.72;46.98
85507;BME280;75915;41.988;21.460;2024-03-08T10:00:53;98887.78;;;13.00;45.83
85507;BME280;75915;41.988;21.460;2024-03-08T10:03:21;98886.06;;;13.25;46.13
85507;BME280;75915;41.988;21.460;2024-03-08T10:05:48;98890.22;;;13.57;44.78
85507;BME280;75915;41.988;21.460;2024-03-08T10:08:14;98883.03;;;13.86;45.62
85507;BME280;75915;41.988;21.460;2024-03-08T10:10:39;98880.06;;;14.22;44.75
85507;BME280;75915;41.988;21.460;2024-03-08T10:13:06;98881.59;;;13.60;44.33
85507;BME280;75915;41.988;21.460;2024-03-08T10:15:32;98878.28;;;13.73;45.20
85507;BME280;75915;41.988;21.460;2024-03-08T10:17:59;98869.78;;;14.24;44.58
85507;BME280;75915;41.988;21.460;2024-03-08T10:20:24;98868.06;;;14.39;43.93
85507;BME280;75915;41.988;21.460;2024-03-08T10:22:52;98876.00;;;13.91;43.73
85507;BME280;75915;41.988;21.460;2024-03-08T10:25:19;98862.22;;;13.63;44.77
85507;BME280;75915;41.988;21.460;2024-03-08T10:27:45;98864.88;;;13.68;44.36
85507;BME280;75915;41.988;21.460;2024-03-08T10:30:15;98868.09;;;13.65;44.47
85507;BME280;75915;41.988;21.460;2024-03-08T10:32:45;98856.06;;;12.92;46.01
85507;BME280;75915;41.988;21.460;2024-03-08T10:35:11;98849.34;;;13.00;46.03
85507;BME280;75915;41.988;21.460;2024-03-08T10:37:50;98860.66;;;12.87;46.56
85507;BME280;75915;41.988;21.460;2024-03-08T10:40:24;98856.34;;;12.91;45.82
85507;BME280;75915;41.988;21.460;2024-03-08T10:42:55;98847.34;;;13.21;45.89
85507;BME280;75915;41.988;21.460;2024-03-08T10:45:37;98851.25;;;12.89;46.24
85507;BME280;75915;41.988;21.460;2024-03-08T10:50:39;98839.91;;;13.52;44.96
85507;BME280;75915;41.988;21.460;2024-03-08T10:53:06;98843.56;;;13.72;44.96
85507;BME280;75915;41.988;21.460;2024-03-08T10:55:36;98837.41;;;13.66;43.93
85507;BME280;75915;41.988;21.460;2024-03-08T10:58:04;98827.44;;;13.27;44.84
85507;BME280;75915;41.988;21.460;2024-03-08T11:00:32;98825.19;;;13.39;44.93
85507;BME280;75915;41.988;21.460;2024-03-08T11:02:59;98822.78;;;13.77;45.18
85507;BME280;75915;41.988;21.460;2024-03-08T11:05:39;98812.50;;;13.84;43.97
85507;BME280;75915;41.988;21.460;2024-03-08T11:08:26;98808.13;;;14.18;43.28
85507;BME280;75915;41.988;21.460;2024-03-08T11:10:54;98816.00;;;13.45;43.62
85507;BME280;75915;41.988;21.460;2024-03-08T11:13:41;98805.19;;;13.06;44.88
85507;BME280;75915;41.988;21.460;2024-03-08T11:16:37;98800.22;;;13.29;44.70
85507;BME280;75915;41.988;21.460;2024-03-08T11:19:05;98798.97;;;13.55;44.68
85507;BME280;75915;41.988;21.460;2024-03-08T11:21:33;98796.44;;;13.35;44.47
85507;BME280;75915;41.988;21.460;2024-03-08T11:24:13;98785.75;;;13.19;45.44
85507;BME280;75915;41.988;21.460;2024-03-08T11:26:40;98782.44;;;13.33;45.13
85507;BME280;75915;41.988;21.460;2024-03-08T11:32:10;98775.09;;;13.49;43.80
85507;BME280;75915;41.988;21.460;2024-03-08T11:34:41;98768.91;;;13.43;43.47
85507;BME280;75915;41.988;21.460;2024-03-08T11:37:16;98770.47;;;13.54;42.84
85507;BME280;75915;41.988;21.460;2024-03-08T11:39:57;98774.78;;;13.50;43.12
85507;BME280;75915;41.988;21.460;2024-03-08T11:42:25;98765.31;;;13.58;42.01
85507;BME280;75915;41.988;21.460;2024-03-08T11:44:59;98761.34;;;13.79;41.97
85507;BME280;75915;41.988;21.460;2024-03-08T11:47:25;98762.88;;;13.91;42.58
85507;BME280;75915;41.988;21.460;2024-03-08T11:49:51;98754.84;;;13.56;43.08
85507;BME280;75915;41.988;21.460;2024-03-08T11:52:19;98757.53;;;13.56;43.47
85507;BME280;75915;41.988;21.460;2024-03-08T11:54:52;98758.63;;;13.50;43.25
85507;BME280;75915;41.988;21.460;2024-03-08T11:57:22;98753.84;;;13.76;42.02
85507;BME280;75915;41.988;21.460;2024-03-08T11:59:56;98756.78;;;13.80;42.39
85507;BME280;75915;41.988;21.460;2024-03-08T12:02:34;98751.28;;;14.19;41.95
85507;BME280;75915;41.988;21.460;2024-03-08T12:05:03;98751.72;;;14.56;41.05
85507;BME280;75915;41.988;21.460;2024-03-08T12:07:30;98754.13;;;14.57;40.77
85507;BME280;75915;41.988;21.460;2024-03-08T12:13:02;98745.84;;;14.24;41.08
85507;BME280;75915;41.988;21.460;2024-03-08T12:15:29;98743.94;;;14.49;40.48
85507;BME280;75915;41.988;21.460;2024-03-08T12:17:55;98742.28;;;14.53;40.59
85507;BME280;75915;41.988;21.460;2024-03-08T12:20:25;98733.41;;;14.28;40.31
85507;BME280;75915;41.988;21.460;2024-03-08T12:22:55;98729.53;;;14.35;40.15
85507;BME280;75915;41.988;21.460;2024-03-08T12:25:22;98729.06;;;14.51;40.23
85507;BME280;75915;41.988;21.460;2024-03-08T12:27:47;98732.16;;;14.21;40.25
85507;BME280;75915;41.988;21.460;2024-03-08T12:30:21;98728.34;;;14.22;40.32
85507;BME280;75915;41.988;21.460;2024-03-08T12:32:58;98727.69;;;14.06;37.53
85507;BME280;75915;41.988;21.460;2024-03-08T12:35:29;98717.63;;;14.17;37.17
85507;BME280;75915;41.988;21.460;2024-03-08T12:37:58;98715.66;;;14.22;38.34
85507;BME280;75915;41.988;21.460;2024-03-08T12:40:29;98706.97;;;14.30;38.60
85507;BME280;75915;41.988;21.460;2024-03-08T12:42:58;98703.34;;;14.64;38.79
85507;BME280;75915;41.988;21.460;2024-03-08T12:45:24;98702.59;;;14.59;39.29
85507;BME280;75915;41.988;21.460;2024-03-08T12:47:56;98708.28;;;14.76;38.71
85507;BME280;75915;41.988;21.460;2024-03-08T12:50:22;98696.13;;;14.36;39.22
85507;BME280;75915;41.988;21.460;2024-03-08T12:52:50;98697.66;;;14.42;39.16
85507;BME280;75915;41.988;21.460;2024-03-08T12:55:16;98693.56;;;14.44;39.65
85507;BME280;75915;41.988;21.460;2024-03-08T12:57:43;98692.19;;;14.47;40.09
85507;BME280;75915;41.988;21.460;2024-03-08T13:06:52;98712.13;;;14.03;40.94
85507;BME280;75915;41.988;21.460;2024-03-08T13:09:19;98699.94;;;13.52;41.56
85507;BME280;75915;41.988;21.460;2024-03-08T13:11:45;98706.69;;;13.50;42.07
85507;BME280;75915;41.988;21.460;2024-03-08T13:14:12;98709.53;;;13.63;42.09